• Join FlightAware (Why Join?)
  • Login
  • US Flag 
 
02:32PM EST


 

Airport Tracker/Info


-or-


 

Live Flight TrackerFlight Track Log ✈ SWA397 ✈ 13-Jun-2013 ✈ KLAS - KHOU

Flight Track Log - Related Links

Times and Time Zones

All times are in EDT time to prevent confusion due to time zone crossing. See the SWA397 flight status page for this flight to view local times or setup timezone preferences in your user account.

Time Position Orientation Groundspeed Altitude Reporting Facility
EDT Latitude Longitude Course Direction KTS MPH feet Rate Location/Type
03:19PM 36.0767 -115.1706 267° West 185 213 3,100  Level Los Angeles Center
03:20PM 36.0747 -115.2219 267° West 198 228 4,200 1,740 Climbing Los Angeles Center
03:21PM 36.0300 -115.2739 223° Southwest 253 291 6,300 1,620 Climbing Los Angeles Center
03:22PM 35.9528 -115.2964 193° South 278 320 7,600 1,980 Climbing Los Angeles Center
03:22PM 35.8842 -115.2686 162° South 289 333 10,200 2,460 Climbing Los Angeles Center
03:23PM 35.8653 -115.2483 139° Southeast 285 328 10,600 1,560 Climbing Los Angeles Center
03:24PM 35.8381 -115.1456 108° East 371 427 12,100 2,100 Climbing Los Angeles Center
03:26PM 35.8320 -114.8984 84° East  Level FlightAware Approximate
03:27PM 35.8553 -114.7114 84° East 421 484 19,300  Level Albuquerque Center
03:28PM 35.8681 -114.5617 84° East 434 499 21,500 1,920 Climbing Albuquerque Center
03:29PM 35.8817 -114.4089 84° East 444 511 23,300 1,560 Climbing Albuquerque Center
03:30PM 35.8861 -114.2522 88° East 457 526 24,800 1,560 Climbing Albuquerque Center
03:31PM 35.8119 -114.0886 119° Southeast 452 520 26,800 1,500 Climbing Los Angeles Center
03:32PM 35.7511 -113.9489 118° Southeast 458 527 28,200 1,200 Climbing Los Angeles Center
03:33PM 35.6850 -113.8072 120° Southeast 465 535 29,400 1,260 Climbing Los Angeles Center
03:34PM 35.6203 -113.6675 120° Southeast 471 542 30,900 1,620 Climbing Los Angeles Center
03:35PM 35.5564 -113.5294 120° Southeast 467 537 32,800 1,500 Climbing Los Angeles Center
03:36PM 35.4811 -113.3678 120° Southeast 461 531 34,100 1,200 Climbing Los Angeles Center
03:37PM 35.4178 -113.2328 120° Southeast 456 525 35,400 960 Climbing Los Angeles Center
03:38PM 35.3556 -113.1000 120° Southeast 452 520 36,100 720 Climbing Los Angeles Center
03:39PM 35.2864 -112.9547 120° Southeast 456 525 37,000 420 Climbing Los Angeles Center
03:40PM 35.2314 -112.8400 120° Southeast 465 535 37,000  Level Albuquerque Center
03:41PM 35.1683 -112.7069 120° Southeast 462 532 37,000  Level Albuquerque Center
03:42PM 35.1053 -112.5742 120° Southeast 457 526 37,000  Level Albuquerque Center
03:43PM 35.0292 -112.4158 120° Southeast 455 524 37,000  Level Albuquerque Center
03:44PM 34.9653 -112.2850 121° Southeast 453 521 37,000  Level Albuquerque Center
03:45PM 34.9028 -112.1542 120° Southeast 450 518 37,000  Level Albuquerque Center
03:46PM 34.8392 -112.0247 121° Southeast 449 517 37,000  Level Albuquerque Center
03:47PM 34.7764 -111.8953 121° Southeast 447 514 37,000  Level Albuquerque Center
03:48PM 34.7072 -111.7542 121° Southeast 447 514 37,000  Level Albuquerque Center
03:49PM 34.6442 -111.6244 121° Southeast 446 513 37,000  Level Albuquerque Center
03:50PM 34.5811 -111.4950 121° Southeast 444 511 37,000  Level Albuquerque Center
03:51PM 34.5178 -111.3669 121° Southeast 442 509 37,000  Level Albuquerque Center
03:53PM 34.4544 -111.2386 121° Southeast 441 507 37,000  Level Albuquerque Center
03:54PM 34.3781 -111.0867 121° Southeast 440 506 37,000  Level Albuquerque Center
03:55PM 34.3150 -110.9594 121° Southeast 439 505 37,000  Level Albuquerque Center
03:56PM 34.2503 -110.8308 121° Southeast 443 510 37,000  Level Albuquerque Center
03:57PM 34.1881 -110.7092 122° Southeast 446 513 37,000  Level Albuquerque Center
03:58PM 34.1103 -110.5961 130° Southeast 442 509 37,000  Level Albuquerque Center
03:59PM 34.0306 -110.4844 131° Southeast 442 509 37,000  Level Albuquerque Center
04:00PM 33.9372 -110.3464 129° Southeast 444 511 37,000  Level Albuquerque Center
04:01PM 33.8592 -110.2342 130° Southeast 444 511 37,000  Level Albuquerque Center
04:02PM 33.7808 -110.1197 129° Southeast 445 512 37,000  Level Albuquerque Center
04:03PM 33.7011 -110.0042 130° Southeast 451 519 37,000  Level Albuquerque Center
04:04PM 33.6217 -109.8881 129° Southeast 454 522 37,000  Level Albuquerque Center
04:05PM 33.5258 -109.7489 130° Southeast 455 524 37,000  Level Albuquerque Center
04:06PM 33.4447 -109.6333 130° Southeast 456 525 37,000  Level Albuquerque Center
04:07PM 33.3633 -109.5189 130° Southeast 456 525 37,000  Level Albuquerque Center
04:08PM 33.2825 -109.4061 131° Southeast 453 521 37,000  Level Albuquerque Center
04:09PM 33.2028 -109.2939 130° Southeast 449 517 37,000  Level Albuquerque Center
04:10PM 33.1233 -109.1811 130° Southeast 449 517 37,000  Level Albuquerque Center
04:11PM 33.0358 -109.0447 127° Southeast 452 520 37,000  Level Albuquerque Center
04:12PM 32.9589 -108.9253 127° Southeast 456 525 37,000  Level Albuquerque Center
04:13PM 32.8781 -108.8100 130° Southeast 455 524 37,000  Level Albuquerque Center
04:14PM 32.7900 -108.6736 128° Southeast 464 534 37,000  Level Albuquerque Center
04:15PM 32.7178 -108.5542 126° Southeast 454 522 37,000  Level Albuquerque Center
04:16PM 32.6456 -108.4353 126° Southeast 448 516 37,000  Level Albuquerque Center
04:17PM 32.5847 -108.3078 119° Southeast 449 517 37,000  Level Albuquerque Center
04:18PM 32.5347 -108.1731 114° Southeast 451 519 37,000  Level Albuquerque Center
04:19PM 32.4758 -108.0092 113° Southeast 454 522 37,000  Level Albuquerque Center
04:20PM 32.4283 -107.8864 115° Southeast 455 524 37,000  Level Albuquerque Center
04:21PM 32.3781 -107.7486 113° Southeast 458 527 37,000  Level Albuquerque Center
04:22PM 32.3514 -107.5683 100° East 466 536 37,000  Level Albuquerque Center
04:23PM 32.3331 -107.4378 99° East 462 532 37,000  Level Albuquerque Center
04:24PM 32.3075 -107.2600 100° East 462 532 37,000  Level Albuquerque Center
04:25PM 32.2900 -107.1114 98° East 462 532 37,000  Level Albuquerque Center
04:26PM 32.2656 -106.9506 100° East 463 533 37,000  Level Albuquerque Center
04:28PM 32.2444 -106.8042 100° East 458 527 37,000  Level Albuquerque Center
04:29PM 32.2228 -106.6583 100° East 455 524 37,000  Level Albuquerque Center
04:30PM 32.2008 -106.5122 100° East 454 522 37,000  Level Albuquerque Center
04:31PM 32.1789 -106.3675 100° East 451 519 37,000  Level Albuquerque Center
04:32PM 32.1569 -106.2225 100° East 451 519 37,000  Level Albuquerque Center
04:33PM 32.1297 -106.0508 101° East 446 513 37,000  Level Albuquerque Center
04:34PM 32.1100 -105.9200 100° East 444 511 37,000  Level Albuquerque Center
04:35PM 32.0875 -105.7767 100° East 445 512 37,000  Level Albuquerque Center
04:36PM 32.0653 -105.6342 100° East 443 510 37,000  Level Albuquerque Center
04:37PM 32.0381 -105.4617 101° East 446 513 37,000  Level Albuquerque Center
04:38PM 32.0153 -105.3192 101° East 443 510 37,000  Level Albuquerque Center
04:39PM 31.9925 -105.1767 101° East 442 509 37,000  Level Albuquerque Center
04:40PM 31.9694 -105.0331 101° East 445 512 37,000  Level Albuquerque Center
04:41PM 31.9533 -104.8856 97° East 453 521 37,000  Level Albuquerque Center
04:42PM 31.9675 -104.7344 84° East 464 534 37,000  Level Albuquerque Center
04:43PM 31.9778 -104.5811 85° East 469 540 37,000  Level Albuquerque Center
04:44PM 31.9875 -104.4303 86° East 465 535 37,000  Level Albuquerque Center
04:45PM 31.9856 -104.2497 91° East 459 528 37,000  Level Albuquerque Center
04:46PM 31.9839 -104.0986 91° East 461 531 37,000  Level Albuquerque Center
04:47PM 31.9800 -103.9608 92° East 465 535 37,000  Level Albuquerque Center
04:48PM 31.9772 -103.8114 91° East 462 532 37,000  Level Albuquerque Center
04:49PM 31.9742 -103.6333 91° East 457 526 37,000  Level Albuquerque Center
04:50PM 31.9703 -103.4836 92° East 458 527 37,000  Level Albuquerque Center
04:51PM 31.9664 -103.3350 92° East 457 526 37,000  Level Albuquerque Center
04:52PM 31.9622 -103.1853 92° East 458 527 37,000  Level Albuquerque Center
04:53PM 31.9419 -103.0706 102° East 461 531 37,000  Level Fort Worth Center
04:54PM 31.9044 -102.9264 107° East 461 531 37,000  Level Fort Worth Center
04:55PM 31.8689 -102.7822 106° East 461 531 37,000  Level Fort Worth Center
04:55PM 31.8539 -102.7256 107° East 458 527 37,000  Level Albuquerque Center
04:56PM 31.8175 -102.5811 106° East 461 531 37,000  Level Albuquerque Center
04:57PM 31.8067 -102.5244 103° East 461 531 37,000  Level Fort Worth Center
04:58PM 31.7614 -102.3511 107° East 466 536 37,000  Level Fort Worth Center
04:59PM 31.7253 -102.2075 106° East 466 536 37,000  Level Fort Worth Center
05:00PM 31.6908 -102.0642 106° East 466 536 37,000  Level Fort Worth Center
05:01PM 31.6600 -101.9356 106° East 466 536 37,000  Level Fort Worth Center
05:02PM 31.6214 -101.7922 108° East 466 536 37,000  Level Fort Worth Center
05:03PM 31.6014 -101.7167 107° East 452 520 37,000  Level Houston Center
05:04PM 31.5653 -101.5742 107° East 454 522 37,000  Level Houston Center
05:04PM 31.5514 -101.5111 104° East 459 528 37,000  Level Fort Worth Center
05:05PM 31.5144 -101.3633 106° East 459 528 37,000  Level Fort Worth Center
05:06PM 31.4853 -101.2256 104° East 459 528 37,000  Level Fort Worth Center
05:07PM 31.4436 -101.0803 109° East 458 527 37,000  Level Fort Worth Center
05:08PM 31.4103 -100.9353 105° East 458 527 37,000  Level Fort Worth Center
05:09PM 31.3728 -100.7806 106° East 463 533 37,000  Level Fort Worth Center
05:10PM 31.3456 -100.6675 106° East 464 534 37,000  Level Houston Center
05:11PM 31.3094 -100.5222 106° East 465 535 37,000  Level Houston Center
05:12PM 31.2800 -100.3747 103° East 466 536 37,000  Level Houston Center
05:13PM 31.2514 -100.2108 102° East 465 535 37,000  Level Houston Center
05:14PM 31.2233 -100.0492 101° East 464 534 37,000  Level Houston Center
05:15PM 31.1978 -99.9008 101° East 464 534 37,000  Level Houston Center
05:16PM 31.1722 -99.7531 101° East 463 533 37,000  Level Houston Center
05:17PM 31.1467 -99.6058 101° East 463 533 37,000  Level Houston Center
05:18PM 31.1192 -99.4569 102° East 469 540 37,000  Level Houston Center
05:19PM 31.0925 -99.3078 102° East 470 541 37,000  Level Houston Center
05:20PM 31.0617 -99.1417 102° East 469 540 37,000  Level Houston Center
05:21PM 31.0339 -98.9908 102° East 471 542 37,000  Level Houston Center
05:22PM 31.0067 -98.8408 102° East 471 542 37,000  Level Houston Center
05:23PM 30.9775 -98.6914 103° East 469 540 37,000  Level Houston Center
05:24PM 30.9469 -98.5186 102° East 465 535 37,000  Level Houston Center
05:25PM 30.9181 -98.3700 103° East 465 535 37,000  Level Houston Center
05:26PM 30.8892 -98.2222 103° East 464 534 37,000  Level Houston Center
05:27PM 30.8611 -98.0736 102° East 467 537 37,000  Level Houston Center
05:28PM 30.8333 -97.9239 102° East 469 540 37,000  Level Houston Center
05:29PM 30.8036 -97.7750 103° East 471 542 37,000  Level Houston Center
05:30PM 30.7694 -97.6022 103° East 469 540 37,000  Level Houston Center
05:32PM 30.7392 -97.4517 103° East 476 548 37,000  Level Houston Center
05:33PM 30.7097 -97.2997 103° East 484 557 37,000  Level Houston Center
05:34PM 30.6808 -97.1478 102° East 485 558 37,000 -1,020 Level Houston Center
05:35PM 30.6511 -96.9958 103° East 484 557 34,900 -2,700 Descending Houston Center
05:36PM 30.6139 -96.8153 103° East 490 564 31,500 -3,540 Descending Houston Center
05:37PM 30.5808 -96.6647 104° East 480 552 27,700 -3,900 Descending Houston Center
05:38PM 30.4925 -96.5500 132° Southeast 469 540 23,500 -3,720 Descending Houston Center
05:39PM 30.4056 -96.4458 134° Southeast 448 516 20,100 -3,540 Descending Houston Center
05:40PM 30.3267 -96.3506 134° Southeast 413 475 16,300 -4,080 Descending Houston Center
05:40PM 30.2781 -96.2919 134° Southeast 397 457 13,800 -3,780 Descending Houston Center
05:41PM 30.2489 -96.2578 135° Southeast 401 461 12,400 -2,760 Descending Houston Center
05:41PM 30.1994 -96.2064 138° Southeast 376 433 11,000 -1,440 Descending Houston Center
05:42PM 30.1661 -96.1844 150° Southeast 371 427 10,900  Descending Houston Center
05:42PM 30.1111 -96.1561 156° South 336 387 11,000  Climbing Houston Center
05:43PM 30.0647 -96.1306 155° Southeast 341 392 10,900 -420 Descending Houston Center
05:43PM 30.0292 -96.1050 148° Southeast 335 386 10,600 -900 Descending Houston Center
05:44PM 29.9869 -96.0708 145° Southeast 337 388 10,000 -600 Descending Houston Center
05:44PM 29.9481 -96.0394 145° Southeast 332 382 10,000 -120 Level Houston Center
05:45PM 29.9078 -96.0033 142° Southeast 332 382 9,900 -120 Descending Houston Center
05:45PM 29.8994 -95.9631 103° East 288 331 9,900 -540 Level Houston Center
05:46PM 29.8908 -95.9117 101° East 290 334 9,400 -1,020 Descending Houston Center
05:46PM 29.8831 -95.8711 102° East 286 329 8,900 -1,020 Descending Houston Center
05:47PM 29.8742 -95.8233 102° East 284 327 8,400 -1,020 Descending Houston Center
05:47PM 29.8669 -95.7839 102° East 280 322 7,900 -1,020 Descending Houston Center
05:48PM 29.8578 -95.7367 103° East 279 321 7,400 -1,020 Descending Houston Center
05:48PM 29.8483 -95.6919 104° East 275 316 6,900 -1,260 Descending Houston Center
05:49PM 29.8353 -95.6539 112° Southeast 273 314 6,100 -1,500 Descending Houston Center
05:49PM 29.8181 -95.6114 115° Southeast 272 313 5,400 -1,080 Descending Houston Center
05:50PM 29.8036 -95.5753 115° Southeast 272 313 5,000 -600 Descending Houston Center
05:51PM 29.7861 -95.5356 117° Southeast 257 296 4,800 -720 Descending Houston Center
05:51PM 29.7675 -95.4881 114° Southeast 256 295 4,300 -1,020 Descending Houston Center
05:52PM 29.7564 -95.4622 116° Southeast 236 272 3,800 -1,260 Descending Houston Center
05:52PM 29.7400 -95.4217 115° Southeast 238 274 3,000 -1,200 Descending Houston Center
05:53PM 29.7294 -95.3981 117° Southeast 226 260 2,600 -1,080 Descending Houston Center
05:53PM 29.7147 -95.3597 114° Southeast 227 261 1,900 -1,140 Descending Houston Center
05:54PM 29.6992 -95.3439 139° Southeast 179 206 1,500 -900 Descending Houston Center
05:54PM 29.6819 -95.3222 132° Southeast 189 217 1,000 -840 Descending Houston Center
05:55PM 29.6708 -95.3089 134° Southeast 141 162 700 -780 Descending Houston Center
05:55PM 29.6547 -95.2906 135° Southeast 161 185 200 -720 Descending Houston Center
05:57PM 29.6454 -95.2789 115° Southeast  Level Estimated